sensor_id;sensor_type;location;lat;lon;timestamp;P1;durP1;ratioP1;P2;durP2;ratioP2
71572;SDS011;59408;51.032;9.410;2023-12-07T00:02:23;30.52;;;12.73;;
71572;SDS011;59408;51.032;9.410;2023-12-07T00:04:50;31.55;;;14.30;;
71572;SDS011;59408;51.032;9.410;2023-12-07T00:07:18;31.50;;;13.85;;
71572;SDS011;59408;51.032;9.410;2023-12-07T00:09:44;32.10;;;13.80;;
71572;SDS011;59408;51.032;9.410;2023-12-07T00:12:11;32.28;;;14.07;;
71572;SDS011;59408;51.032;9.410;2023-12-07T00:14:37;30.77;;;13.80;;
71572;SDS011;59408;51.032;9.410;2023-12-07T00:17:04;30.83;;;13.70;;
71572;SDS011;59408;51.032;9.410;2023-12-07T00:19:30;31.48;;;13.70;;
71572;SDS011;59408;51.032;9.410;2023-12-07T00:21:57;27.57;;;13.53;;
71572;SDS011;59408;51.032;9.410;2023-12-07T00:24:25;31.70;;;12.50;;
71572;SDS011;59408;51.032;9.410;2023-12-07T00:26:52;28.40;;;13.10;;
71572;SDS011;59408;51.032;9.410;2023-12-07T00:29:18;30.00;;;13.20;;
71572;SDS011;59408;51.032;9.410;2023-12-07T00:31:45;28.77;;;13.27;;
71572;SDS011;59408;51.032;9.410;2023-12-07T00:34:12;27.10;;;12.37;;
71572;SDS011;59408;51.032;9.410;2023-12-07T00:36:38;28.63;;;12.55;;
71572;SDS011;59408;51.032;9.410;2023-12-07T00:39:06;27.50;;;12.68;;
71572;SDS011;59408;51.032;9.410;2023-12-07T00:41:34;28.42;;;13.00;;
71572;SDS011;59408;51.032;9.410;2023-12-07T00:44:00;27.88;;;13.13;;
71572;SDS011;59408;51.032;9.410;2023-12-07T00:46:27;28.43;;;12.37;;
71572;SDS011;59408;51.032;9.410;2023-12-07T00:48:53;28.25;;;12.80;;
71572;SDS011;59408;51.032;9.410;2023-12-07T00:51:20;25.90;;;12.30;;
71572;SDS011;59408;51.032;9.410;2023-12-07T00:53:47;28.40;;;12.45;;
71572;SDS011;59408;51.032;9.410;2023-12-07T00:56:13;27.58;;;12.65;;
71572;SDS011;59408;51.032;9.410;2023-12-07T00:58:41;27.93;;;12.27;;
71572;SDS011;59408;51.032;9.410;2023-12-07T01:01:08;27.13;;;12.20;;
71572;SDS011;59408;51.032;9.410;2023-12-07T01:03:34;28.20;;;11.35;;
71572;SDS011;59408;51.032;9.410;2023-12-07T01:06:01;29.98;;;12.32;;
71572;SDS011;59408;51.032;9.410;2023-12-07T01:08:27;28.95;;;12.75;;
71572;SDS011;59408;51.032;9.410;2023-12-07T01:10:54;26.87;;;11.73;;
71572;SDS011;59408;51.032;9.410;2023-12-07T01:13:21;26.65;;;11.70;;
71572;SDS011;59408;51.032;9.410;2023-12-07T01:15:48;26.02;;;12.15;;
71572;SDS011;59408;51.032;9.410;2023-12-07T01:18:15;27.42;;;12.95;;
71572;SDS011;59408;51.032;9.410;2023-12-07T01:20:42;27.85;;;12.70;;
71572;SDS011;59408;51.032;9.410;2023-12-07T01:23:08;30.83;;;12.33;;
71572;SDS011;59408;51.032;9.410;2023-12-07T01:25:37;26.92;;;11.52;;
71572;SDS011;59408;51.032;9.410;2023-12-07T01:28:04;30.92;;;13.02;;
71572;SDS011;59408;51.032;9.410;2023-12-07T01:30:31;25.75;;;12.20;;
71572;SDS011;59408;51.032;9.410;2023-12-07T01:32:59;24.52;;;11.73;;
71572;SDS011;59408;51.032;9.410;2023-12-07T01:35:25;25.57;;;11.77;;
71572;SDS011;59408;51.032;9.410;2023-12-07T01:37:52;23.98;;;11.48;;
71572;SDS011;59408;51.032;9.410;2023-12-07T01:40:18;25.10;;;11.65;;
71572;SDS011;59408;51.032;9.410;2023-12-07T01:42:51;24.98;;;11.65;;
71572;SDS011;59408;51.032;9.410;2023-12-07T01:45:18;29.17;;;12.20;;
71572;SDS011;59408;51.032;9.410;2023-12-07T01:47:45;25.33;;;11.10;;
71572;SDS011;59408;51.032;9.410;2023-12-07T01:50:15;24.13;;;11.57;;
71572;SDS011;59408;51.032;9.410;2023-12-07T01:52:43;24.52;;;12.13;;
71572;SDS011;59408;51.032;9.410;2023-12-07T01:55:11;25.35;;;11.52;;
71572;SDS011;59408;51.032;9.410;2023-12-07T01:57:39;22.75;;;10.77;;
71572;SDS011;59408;51.032;9.410;2023-12-07T02:00:06;23.80;;;10.40;;
71572;SDS011;59408;51.032;9.410;2023-12-07T02:02:33;24.60;;;10.57;;
71572;SDS011;59408;51.032;9.410;2023-12-07T02:05:00;22.63;;;10.57;;
71572;SDS011;59408;51.032;9.410;2023-12-07T02:07:28;25.23;;;11.50;;
71572;SDS011;59408;51.032;9.410;2023-12-07T02:09:57;22.98;;;11.02;;
71572;SDS011;59408;51.032;9.410;2023-12-07T02:12:24;22.47;;;10.67;;
71572;SDS011;59408;51.032;9.410;2023-12-07T02:14:51;24.75;;;10.63;;
71572;SDS011;59408;51.032;9.410;2023-12-07T02:17:18;22.33;;;10.32;;
71572;SDS011;59408;51.032;9.410;2023-12-07T02:19:52;21.95;;;9.90;;
71572;SDS011;59408;51.032;9.410;2023-12-07T02:22:25;21.45;;;9.73;;
71572;SDS011;59408;51.032;9.410;2023-12-07T02:25:02;23.30;;;9.83;;
71572;SDS011;59408;51.032;9.410;2023-12-07T02:27:36;21.60;;;10.18;;
71572;SDS011;59408;51.032;9.410;2023-12-07T02:30:05;22.38;;;10.55;;
71572;SDS011;59408;51.032;9.410;2023-12-07T02:32:32;22.08;;;9.95;;
71572;SDS011;59408;51.032;9.410;2023-12-07T02:34:59;20.38;;;9.85;;
71572;SDS011;59408;51.032;9.410;2023-12-07T02:37:27;23.70;;;10.10;;
71572;SDS011;59408;51.032;9.410;2023-12-07T02:39:55;21.55;;;9.32;;
71572;SDS011;59408;51.032;9.410;2023-12-07T02:42:23;20.67;;;9.88;;
71572;SDS011;59408;51.032;9.410;2023-12-07T02:44:53;22.35;;;10.45;;
71572;SDS011;59408;51.032;9.410;2023-12-07T02:47:20;22.35;;;9.43;;
71572;SDS011;59408;51.032;9.410;2023-12-07T02:49:46;21.47;;;10.07;;
71572;SDS011;59408;51.032;9.410;2023-12-07T02:52:13;23.58;;;10.20;;
71572;SDS011;59408;51.032;9.410;2023-12-07T02:54:40;22.20;;;9.93;;
71572;SDS011;59408;51.032;9.410;2023-12-07T02:57:06;23.73;;;9.90;;
71572;SDS011;59408;51.032;9.410;2023-12-07T02:59:33;20.13;;;9.38;;
71572;SDS011;59408;51.032;9.410;2023-12-07T03:02:01;23.83;;;9.67;;
71572;SDS011;59408;51.032;9.410;2023-12-07T03:04:27;19.60;;;9.07;;
71572;SDS011;59408;51.032;9.410;2023-12-07T03:06:54;18.65;;;8.52;;
71572;SDS011;59408;51.032;9.410;2023-12-07T03:09:20;19.60;;;8.93;;
71572;SDS011;59408;51.032;9.410;2023-12-07T03:11:47;21.90;;;9.85;;
71572;SDS011;59408;51.032;9.410;2023-12-07T03:14:13;20.40;;;9.27;;
71572;SDS011;59408;51.032;9.410;2023-12-07T03:16:40;20.90;;;9.13;;
71572;SDS011;59408;51.032;9.410;2023-12-07T03:19:08;21.50;;;9.27;;
71572;SDS011;59408;51.032;9.410;2023-12-07T03:21:38;24.13;;;9.85;;
71572;SDS011;59408;51.032;9.410;2023-12-07T03:24:06;21.48;;;8.98;;
71572;SDS011;59408;51.032;9.410;2023-12-07T03:26:32;22.57;;;9.90;;
71572;SDS011;59408;51.032;9.410;2023-12-07T03:28:59;22.08;;;9.65;;
71572;SDS011;59408;51.032;9.410;2023-12-07T03:31:26;21.83;;;9.82;;
71572;SDS011;59408;51.032;9.410;2023-12-07T03:33:52;18.85;;;9.05;;
71572;SDS011;59408;51.032;9.410;2023-12-07T03:36:20;19.88;;;9.65;;
71572;SDS011;59408;51.032;9.410;2023-12-07T03:38:47;17.93;;;8.67;;
71572;SDS011;59408;51.032;9.410;2023-12-07T03:41:14;19.63;;;8.93;;
71572;SDS011;59408;51.032;9.410;2023-12-07T03:43:40;18.08;;;8.65;;
71572;SDS011;59408;51.032;9.410;2023-12-07T03:46:07;19.70;;;8.93;;
71572;SDS011;59408;51.032;9.410;2023-12-07T03:48:34;20.63;;;9.23;;
71572;SDS011;59408;51.032;9.410;2023-12-07T03:51:00;17.87;;;8.40;;
71572;SDS011;59408;51.032;9.410;2023-12-07T03:53:28;20.67;;;9.05;;
71572;SDS011;59408;51.032;9.410;2023-12-07T03:55:55;18.88;;;8.80;;
71572;SDS011;59408;51.032;9.410;2023-12-07T03:58:22;18.40;;;9.25;;
71572;SDS011;59408;51.032;9.410;2023-12-07T04:00:48;19.63;;;8.48;;
71572;SDS011;59408;51.032;9.410;2023-12-07T04:03:15;19.47;;;9.10;;
71572;SDS011;59408;51.032;9.410;2023-12-07T04:05:41;20.90;;;9.52;;
71572;SDS011;59408;51.032;9.410;2023-12-07T04:08:08;18.30;;;7.95;;
71572;SDS011;59408;51.032;9.410;2023-12-07T04:10:36;23.35;;;10.27;;
71572;SDS011;59408;51.032;9.410;2023-12-07T04:13:02;22.67;;;9.68;;
71572;SDS011;59408;51.032;9.410;2023-12-07T04:15:29;19.70;;;8.83;;
71572;SDS011;59408;51.032;9.410;2023-12-07T04:17:56;21.10;;;8.88;;
71572;SDS011;59408;51.032;9.410;2023-12-07T04:20:22;27.90;;;11.50;;
71572;SDS011;59408;51.032;9.410;2023-12-07T04:22:48;24.85;;;9.77;;
71572;SDS011;59408;51.032;9.410;2023-12-07T04:25:15;34.05;;;13.18;;
71572;SDS011;59408;51.032;9.410;2023-12-07T04:27:43;35.13;;;13.27;;
71572;SDS011;59408;51.032;9.410;2023-12-07T04:30:10;49.00;;;20.63;;
71572;SDS011;59408;51.032;9.410;2023-12-07T04:32:37;29.77;;;13.63;;
71572;SDS011;59408;51.032;9.410;2023-12-07T04:35:04;21.25;;;9.63;;
71572;SDS011;59408;51.032;9.410;2023-12-07T04:37:31;19.88;;;9.32;;
71572;SDS011;59408;51.032;9.410;2023-12-07T04:39:57;18.77;;;8.13;;
71572;SDS011;59408;51.032;9.410;2023-12-07T04:42:24;17.92;;;8.02;;
71572;SDS011;59408;51.032;9.410;2023-12-07T04:44:52;18.73;;;8.45;;
71572;SDS011;59408;51.032;9.410;2023-12-07T04:47:19;20.38;;;8.57;;
71572;SDS011;59408;51.032;9.410;2023-12-07T04:49:45;20.67;;;8.52;;
71572;SDS011;59408;51.032;9.410;2023-12-07T04:52:12;20.23;;;9.03;;
71572;SDS011;59408;51.032;9.410;2023-12-07T04:54:40;19.90;;;9.45;;
71572;SDS011;59408;51.032;9.410;2023-12-07T04:57:07;19.50;;;8.43;;
71572;SDS011;59408;51.032;9.410;2023-12-07T04:59:34;18.48;;;8.82;;
71572;SDS011;59408;51.032;9.410;2023-12-07T05:02:04;19.38;;;8.55;;
71572;SDS011;59408;51.032;9.410;2023-12-07T05:04:31;18.67;;;8.50;;
71572;SDS011;59408;51.032;9.410;2023-12-07T05:06:58;18.77;;;8.55;;
71572;SDS011;59408;51.032;9.410;2023-12-07T05:09:24;19.60;;;8.60;;
71572;SDS011;59408;51.032;9.410;2023-12-07T05:11:51;17.73;;;8.40;;
71572;SDS011;59408;51.032;9.410;2023-12-07T05:14:17;19.23;;;8.30;;
71572;SDS011;59408;51.032;9.410;2023-12-07T05:16:44;19.77;;;7.63;;
71572;SDS011;59408;51.032;9.410;2023-12-07T05:19:12;17.17;;;8.13;;
71572;SDS011;59408;51.032;9.410;2023-12-07T05:21:39;16.60;;;7.60;;
71572;SDS011;59408;51.032;9.410;2023-12-07T05:24:05;20.58;;;8.45;;
71572;SDS011;59408;51.032;9.410;2023-12-07T05:26:32;19.58;;;8.10;;
71572;SDS011;59408;51.032;9.410;2023-12-07T05:28:59;20.47;;;8.97;;
71572;SDS011;59408;51.032;9.410;2023-12-07T05:31:25;20.40;;;8.65;;
71572;SDS011;59408;51.032;9.410;2023-12-07T05:33:52;18.70;;;8.98;;
71572;SDS011;59408;51.032;9.410;2023-12-07T05:36:20;17.23;;;8.50;;
71572;SDS011;59408;51.032;9.410;2023-12-07T05:38:46;18.33;;;8.68;;
71572;SDS011;59408;51.032;9.410;2023-12-07T05:41:13;18.87;;;8.23;;
71572;SDS011;59408;51.032;9.410;2023-12-07T05:43:40;17.33;;;8.10;;
71572;SDS011;59408;51.032;9.410;2023-12-07T05:46:07;16.80;;;7.70;;
71572;SDS011;59408;51.032;9.410;2023-12-07T05:48:34;17.77;;;7.63;;
71572;SDS011;59408;51.032;9.410;2023-12-07T05:51:01;19.42;;;8.25;;
71572;SDS011;59408;51.032;9.410;2023-12-07T05:53:29;20.57;;;8.13;;
71572;SDS011;59408;51.032;9.410;2023-12-07T05:55:55;20.48;;;8.32;;
71572;SDS011;59408;51.032;9.410;2023-12-07T05:58:24;19.58;;;8.57;;
71572;SDS011;59408;51.032;9.410;2023-12-07T06:00:51;18.95;;;7.80;;
71572;SDS011;59408;51.032;9.410;2023-12-07T06:03:17;17.98;;;7.53;;
71572;SDS011;59408;51.032;9.410;2023-12-07T06:05:44;15.83;;;7.80;;
71572;SDS011;59408;51.032;9.410;2023-12-07T06:08:10;16.95;;;7.70;;
71572;SDS011;59408;51.032;9.410;2023-12-07T06:10:38;18.48;;;7.82;;
71572;SDS011;59408;51.032;9.410;2023-12-07T06:13:05;16.67;;;8.00;;
71572;SDS011;59408;51.032;9.410;2023-12-07T06:15:32;18.67;;;8.15;;
71572;SDS011;59408;51.032;9.410;2023-12-07T06:17:59;20.37;;;9.30;;
71572;SDS011;59408;51.032;9.410;2023-12-07T06:20:26;19.15;;;9.38;;
71572;SDS011;59408;51.032;9.410;2023-12-07T06:22:52;17.38;;;8.15;;
71572;SDS011;59408;51.032;9.410;2023-12-07T06:25:19;16.60;;;8.02;;
71572;SDS011;59408;51.032;9.410;2023-12-07T06:27:47;16.95;;;8.60;;
71572;SDS011;59408;51.032;9.410;2023-12-07T06:30:13;17.33;;;8.47;;
71572;SDS011;59408;51.032;9.410;2023-12-07T06:32:40;18.88;;;8.45;;
71572;SDS011;59408;51.032;9.410;2023-12-07T06:35:07;17.20;;;7.90;;
71572;SDS011;59408;51.032;9.410;2023-12-07T06:37:34;18.88;;;8.32;;
71572;SDS011;59408;51.032;9.410;2023-12-07T06:40:01;18.48;;;7.85;;
71572;SDS011;59408;51.032;9.410;2023-12-07T06:42:27;18.67;;;7.57;;
71572;SDS011;59408;51.032;9.410;2023-12-07T06:44:56;17.45;;;8.07;;
71572;SDS011;59408;51.032;9.410;2023-12-07T06:47:22;21.33;;;8.95;;
71572;SDS011;59408;51.032;9.410;2023-12-07T06:49:49;20.00;;;8.07;;
71572;SDS011;59408;51.032;9.410;2023-12-07T06:52:18;18.42;;;8.40;;
71572;SDS011;59408;51.032;9.410;2023-12-07T06:54:45;19.43;;;9.10;;
71572;SDS011;59408;51.032;9.410;2023-12-07T06:57:12;18.63;;;8.05;;
71572;SDS011;59408;51.032;9.410;2023-12-07T06:59:38;17.75;;;8.52;;
71572;SDS011;59408;51.032;9.410;2023-12-07T07:02:06;20.02;;;9.00;;
71572;SDS011;59408;51.032;9.410;2023-12-07T07:04:33;23.55;;;10.73;;
71572;SDS011;59408;51.032;9.410;2023-12-07T07:06:59;19.87;;;8.83;;
71572;SDS011;59408;51.032;9.410;2023-12-07T07:09:26;20.42;;;8.98;;
71572;SDS011;59408;51.032;9.410;2023-12-07T07:11:53;23.33;;;9.27;;
71572;SDS011;59408;51.032;9.410;2023-12-07T07:14:19;19.27;;;8.75;;
71572;SDS011;59408;51.032;9.410;2023-12-07T07:16:46;26.63;;;10.70;;
71572;SDS011;59408;51.032;9.410;2023-12-07T07:19:14;21.80;;;9.23;;
71572;SDS011;59408;51.032;9.410;2023-12-07T07:21:40;22.05;;;9.23;;
71572;SDS011;59408;51.032;9.410;2023-12-07T07:24:07;22.75;;;9.38;;
71572;SDS011;59408;51.032;9.410;2023-12-07T07:26:35;24.08;;;9.52;;
71572;SDS011;59408;51.032;9.410;2023-12-07T07:29:02;20.35;;;9.35;;
71572;SDS011;59408;51.032;9.410;2023-12-07T07:31:28;23.70;;;9.87;;
71572;SDS011;59408;51.032;9.410;2023-12-07T07:33:55;21.50;;;9.63;;
71572;SDS011;59408;51.032;9.410;2023-12-07T07:36:28;23.08;;;9.82;;
71572;SDS011;59408;51.032;9.410;2023-12-07T07:38:54;20.30;;;9.07;;
71572;SDS011;59408;51.032;9.410;2023-12-07T07:41:21;22.73;;;10.23;;
71572;SDS011;59408;51.032;9.410;2023-12-07T07:43:48;18.53;;;9.07;;
71572;SDS011;59408;51.032;9.410;2023-12-07T07:46:15;21.88;;;8.95;;
71572;SDS011;59408;51.032;9.410;2023-12-07T07:48:41;20.30;;;9.20;;
71572;SDS011;59408;51.032;9.410;2023-12-07T07:51:08;20.83;;;9.73;;
71572;SDS011;59408;51.032;9.410;2023-12-07T07:53:36;22.30;;;10.25;;
71572;SDS011;59408;51.032;9.410;2023-12-07T07:56:02;21.40;;;8.73;;
71572;SDS011;59408;51.032;9.410;2023-12-07T07:58:29;22.42;;;10.20;;
71572;SDS011;59408;51.032;9.410;2023-12-07T08:00:56;19.60;;;7.55;;
71572;SDS011;59408;51.032;9.410;2023-12-07T08:03:22;19.45;;;8.10;;
71572;SDS011;59408;51.032;9.410;2023-12-07T08:05:49;21.38;;;8.98;;
71572;SDS011;59408;51.032;9.410;2023-12-07T08:08:15;16.13;;;7.23;;
71572;SDS011;59408;51.032;9.410;2023-12-07T08:10:43;17.92;;;7.72;;
71572;SDS011;59408;51.032;9.410;2023-12-07T08:13:21;16.42;;;8.10;;
71572;SDS011;59408;51.032;9.410;2023-12-07T08:15:48;16.38;;;7.82;;
71572;SDS011;59408;51.032;9.410;2023-12-07T08:18:15;17.55;;;7.65;;
71572;SDS011;59408;51.032;9.410;2023-12-07T08:20:42;18.23;;;8.23;;
71572;SDS011;59408;51.032;9.410;2023-12-07T08:23:09;16.35;;;7.50;;
71572;SDS011;59408;51.032;9.410;2023-12-07T08:25:35;17.23;;;7.70;;
71572;SDS011;59408;51.032;9.410;2023-12-07T08:28:03;17.15;;;7.22;;
71572;SDS011;59408;51.032;9.410;2023-12-07T08:30:30;20.08;;;7.78;;
71572;SDS011;59408;51.032;9.410;2023-12-07T08:32:57;19.57;;;7.83;;
71572;SDS011;59408;51.032;9.410;2023-12-07T08:35:23;15.98;;;7.50;;
71572;SDS011;59408;51.032;9.410;2023-12-07T08:37:50;20.40;;;7.82;;
71572;SDS011;59408;51.032;9.410;2023-12-07T08:40:16;17.02;;;7.75;;
71572;SDS011;59408;51.032;9.410;2023-12-07T08:42:45;16.75;;;7.22;;
71572;SDS011;59408;51.032;9.410;2023-12-07T08:45:17;15.93;;;7.47;;
71572;SDS011;59408;51.032;9.410;2023-12-07T08:47:44;18.35;;;7.75;;
71572;SDS011;59408;51.032;9.410;2023-12-07T08:50:10;19.02;;;7.97;;
71572;SDS011;59408;51.032;9.410;2023-12-07T08:52:37;15.88;;;7.40;;
71572;SDS011;59408;51.032;9.410;2023-12-07T08:55:13;16.38;;;7.90;;
71572;SDS011;59408;51.032;9.410;2023-12-07T08:57:39;17.00;;;7.17;;
71572;SDS011;59408;51.032;9.410;2023-12-07T09:00:06;18.80;;;8.50;;
71572;SDS011;59408;51.032;9.410;2023-12-07T09:02:35;16.75;;;7.82;;
71572;SDS011;59408;51.032;9.410;2023-12-07T09:05:13;17.42;;;7.70;;
71572;SDS011;59408;51.032;9.410;2023-12-07T09:07:40;16.27;;;7.68;;
71572;SDS011;59408;51.032;9.410;2023-12-07T09:10:07;18.27;;;7.40;;
71572;SDS011;59408;51.032;9.410;2023-12-07T09:12:34;16.40;;;7.07;;
71572;SDS011;59408;51.032;9.410;2023-12-07T09:15:05;24.90;;;10.90;;
71572;SDS011;59408;51.032;9.410;2023-12-07T09:17:34;16.13;;;7.32;;
71572;SDS011;59408;51.032;9.410;2023-12-07T09:20:01;15.30;;;6.95;;
71572;SDS011;59408;51.032;9.410;2023-12-07T09:22:28;15.07;;;7.10;;
71572;SDS011;59408;51.032;9.410;2023-12-07T09:25:03;14.52;;;7.10;;
71572;SDS011;59408;51.032;9.410;2023-12-07T09:27:30;19.08;;;7.30;;
71572;SDS011;59408;51.032;9.410;2023-12-07T09:29:57;15.98;;;7.55;;
71572;SDS011;59408;51.032;9.410;2023-12-07T09:32:23;17.27;;;7.40;;
71572;SDS011;59408;51.032;9.410;2023-12-07T09:35:02;14.73;;;5.63;;
71572;SDS011;59408;51.032;9.410;2023-12-07T09:37:29;15.35;;;7.30;;
71572;SDS011;59408;51.032;9.410;2023-12-07T09:39:56;15.60;;;7.40;;
71572;SDS011;59408;51.032;9.410;2023-12-07T09:42:23;16.05;;;7.50;;
71572;SDS011;59408;51.032;9.410;2023-12-07T09:44:56;13.43;;;6.65;;
71572;SDS011;59408;51.032;9.410;2023-12-07T09:47:24;18.47;;;7.10;;
71572;SDS011;59408;51.032;9.410;2023-12-07T09:50:03;16.42;;;7.07;;
71572;SDS011;59408;51.032;9.410;2023-12-07T09:52:30;16.10;;;7.82;;
71572;SDS011;59408;51.032;9.410;2023-12-07T09:54:57;17.75;;;7.80;;
71572;SDS011;59408;51.032;9.410;2023-12-07T09:57:25;19.77;;;8.40;;
71572;SDS011;59408;51.032;9.410;2023-12-07T09:59:56;17.20;;;7.80;;
71572;SDS011;59408;51.032;9.410;2023-12-07T10:02:22;18.45;;;8.77;;
71572;SDS011;59408;51.032;9.410;2023-12-07T10:05:04;19.67;;;8.20;;
71572;SDS011;59408;51.032;9.410;2023-12-07T10:07:32;20.92;;;8.93;;
71572;SDS011;59408;51.032;9.410;2023-12-07T10:09:59;19.88;;;7.85;;
71572;SDS011;59408;51.032;9.410;2023-12-07T10:12:26;18.47;;;7.97;;
71572;SDS011;59408;51.032;9.410;2023-12-07T10:14:52;19.27;;;8.60;;
71572;SDS011;59408;51.032;9.410;2023-12-07T10:17:19;22.70;;;9.00;;
71572;SDS011;59408;51.032;9.410;2023-12-07T10:19:45;20.50;;;8.80;;
71572;SDS011;59408;51.032;9.410;2023-12-07T10:22:16;19.02;;;7.90;;
71572;SDS011;59408;51.032;9.410;2023-12-07T10:24:43;16.10;;;7.40;;
71572;SDS011;59408;51.032;9.410;2023-12-07T10:27:09;15.93;;;7.35;;
71572;SDS011;59408;51.032;9.410;2023-12-07T10:29:37;19.05;;;8.20;;
71572;SDS011;59408;51.032;9.410;2023-12-07T10:32:04;19.95;;;8.25;;
71572;SDS011;59408;51.032;9.410;2023-12-07T10:34:32;17.50;;;7.88;;
71572;SDS011;59408;51.032;9.410;2023-12-07T10:36:59;17.57;;;8.03;;
71572;SDS011;59408;51.032;9.410;2023-12-07T10:39:27;18.02;;;8.20;;
71572;SDS011;59408;51.032;9.410;2023-12-07T10:42:01;20.13;;;8.25;;
71572;SDS011;59408;51.032;9.410;2023-12-07T10:44:29;19.98;;;8.57;;
71572;SDS011;59408;51.032;9.410;2023-12-07T10:46:57;18.15;;;7.95;;
71572;SDS011;59408;51.032;9.410;2023-12-07T10:49:24;20.77;;;9.07;;
71572;SDS011;59408;51.032;9.410;2023-12-07T10:52:02;17.48;;;8.05;;
71572;SDS011;59408;51.032;9.410;2023-12-07T10:54:35;19.35;;;8.02;;
71572;SDS011;59408;51.032;9.410;2023-12-07T10:57:07;15.57;;;7.75;;
71572;SDS011;59408;51.032;9.410;2023-12-07T10:59:35;19.20;;;8.13;;
71572;SDS011;59408;51.032;9.410;2023-12-07T11:02:04;18.13;;;8.97;;
71572;SDS011;59408;51.032;9.410;2023-12-07T11:04:33;18.33;;;8.50;;
71572;SDS011;59408;51.032;9.410;2023-12-07T11:07:03;19.30;;;7.47;;
71572;SDS011;59408;51.032;9.410;2023-12-07T11:09:38;16.88;;;7.88;;
71572;SDS011;59408;51.032;9.410;2023-12-07T11:12:09;18.60;;;7.88;;
71572;SDS011;59408;51.032;9.410;2023-12-07T11:14:39;15.60;;;7.43;;
71572;SDS011;59408;51.032;9.410;2023-12-07T11:17:06;16.83;;;8.32;;
71572;SDS011;59408;51.032;9.410;2023-12-07T11:22:20;17.10;;;7.97;;
71572;SDS011;59408;51.032;9.410;2023-12-07T11:24:53;17.80;;;7.38;;
71572;SDS011;59408;51.032;9.410;2023-12-07T11:27:21;17.27;;;8.10;;
71572;SDS011;59408;51.032;9.410;2023-12-07T11:29:48;15.68;;;6.40;;
71572;SDS011;59408;51.032;9.410;2023-12-07T11:32:15;15.60;;;7.43;;
71572;SDS011;59408;51.032;9.410;2023-12-07T11:34:52;19.42;;;7.60;;
71572;SDS011;59408;51.032;9.410;2023-12-07T11:37:19;19.50;;;9.50;;
71572;SDS011;59408;51.032;9.410;2023-12-07T11:39:45;22.10;;;10.77;;
71572;SDS011;59408;51.032;9.410;2023-12-07T11:42:15;14.02;;;6.95;;
71572;SDS011;59408;51.032;9.410;2023-12-07T11:44:43;16.67;;;6.60;;
71572;SDS011;59408;51.032;9.410;2023-12-07T11:47:15;13.77;;;6.47;;
71572;SDS011;59408;51.032;9.410;2023-12-07T11:49:43;12.93;;;6.20;;
71572;SDS011;59408;51.032;9.410;2023-12-07T11:52:13;13.17;;;6.53;;
71572;SDS011;59408;51.032;9.410;2023-12-07T11:54:42;13.48;;;5.90;;
71572;SDS011;59408;51.032;9.410;2023-12-07T11:57:10;12.70;;;6.30;;
71572;SDS011;59408;51.032;9.410;2023-12-07T11:59:38;12.02;;;5.38;;
71572;SDS011;59408;51.032;9.410;2023-12-07T12:02:04;10.38;;;5.03;;
71572;SDS011;59408;51.032;9.410;2023-12-07T12:04:31;11.37;;;5.93;;
71572;SDS011;59408;51.032;9.410;2023-12-07T12:06:58;12.73;;;6.20;;
71572;SDS011;59408;51.032;9.410;2023-12-07T12:09:24;11.60;;;5.60;;
71572;SDS011;59408;51.032;9.410;2023-12-07T12:11:58;13.52;;;5.70;;
71572;SDS011;59408;51.032;9.410;2023-12-07T12:14:25;12.52;;;5.88;;
71572;SDS011;59408;51.032;9.410;2023-12-07T12:16:54;12.20;;;5.50;;
71572;SDS011;59408;51.032;9.410;2023-12-07T12:19:21;12.98;;;6.13;;
71572;SDS011;59408;51.032;9.410;2023-12-07T12:21:59;12.18;;;5.55;;
71572;SDS011;59408;51.032;9.410;2023-12-07T12:24:30;10.60;;;5.15;;
71572;SDS011;59408;51.032;9.410;2023-12-07T12:26:57;12.23;;;5.22;;
71572;SDS011;59408;51.032;9.410;2023-12-07T12:29:24;10.47;;;5.43;;
71572;SDS011;59408;51.032;9.410;2023-12-07T12:32:01;10.35;;;4.82;;
71572;SDS011;59408;51.032;9.410;2023-12-07T12:34:27;13.23;;;4.70;;
71572;SDS011;59408;51.032;9.410;2023-12-07T12:36:55;10.70;;;4.90;;
71572;SDS011;59408;51.032;9.410;2023-12-07T12:39:26;9.68;;;4.45;;
71572;SDS011;59408;51.032;9.410;2023-12-07T12:41:55;10.13;;;4.67;;
71572;SDS011;59408;51.032;9.410;2023-12-07T12:44:22;10.68;;;4.45;;
71572;SDS011;59408;51.032;9.410;2023-12-07T12:47:02;10.18;;;4.88;;
71572;SDS011;59408;51.032;9.410;2023-12-07T12:49:34;11.35;;;3.90;;
71572;SDS011;59408;51.032;9.410;2023-12-07T12:52:01;8.93;;;4.55;;
71572;SDS011;59408;51.032;9.410;2023-12-07T12:54:30;8.27;;;4.10;;
71572;SDS011;59408;51.032;9.410;2023-12-07T12:56:57;10.88;;;5.30;;
71572;SDS011;59408;51.032;9.410;2023-12-07T12:59:24;9.32;;;3.80;;
71572;SDS011;59408;51.032;9.410;2023-12-07T13:01:50;12.18;;;4.72;;
71572;SDS011;59408;51.032;9.410;2023-12-07T13:04:18;10.48;;;4.53;;
71572;SDS011;59408;51.032;9.410;2023-12-07T13:06:45;11.20;;;4.20;;
71572;SDS011;59408;51.032;9.410;2023-12-07T13:09:12;13.40;;;5.40;;
71572;SDS011;59408;51.032;9.410;2023-12-07T13:11:38;9.90;;;4.80;;
71572;SDS011;59408;51.032;9.410;2023-12-07T13:14:05;9.93;;;4.38;;
71572;SDS011;59408;51.032;9.410;2023-12-07T13:16:31;10.98;;;4.47;;
71572;SDS011;59408;51.032;9.410;2023-12-07T13:18:58;10.33;;;5.17;;
71572;SDS011;59408;51.032;9.410;2023-12-07T13:21:26;10.20;;;4.72;;
71572;SDS011;59408;51.032;9.410;2023-12-07T13:23:53;9.27;;;4.65;;
71572;SDS011;59408;51.032;9.410;2023-12-07T13:26:19;9.98;;;4.65;;
71572;SDS011;59408;51.032;9.410;2023-12-07T13:28:47;10.82;;;5.63;;
71572;SDS011;59408;51.032;9.410;2023-12-07T13:31:14;8.90;;;4.13;;
71572;SDS011;59408;51.032;9.410;2023-12-07T13:33:40;10.68;;;4.38;;
71572;SDS011;59408;51.032;9.410;2023-12-07T13:36:20;10.25;;;4.72;;
71572;SDS011;59408;51.032;9.410;2023-12-07T13:38:48;9.65;;;4.50;;
71572;SDS011;59408;51.032;9.410;2023-12-07T13:41:15;10.45;;;4.80;;
71572;SDS011;59408;51.032;9.410;2023-12-07T13:43:41;9.37;;;4.50;;
71572;SDS011;59408;51.032;9.410;2023-12-07T13:46:08;8.63;;;4.20;;
71572;SDS011;59408;51.032;9.410;2023-12-07T13:48:35;12.45;;;4.85;;
71572;SDS011;59408;51.032;9.410;2023-12-07T13:51:01;9.65;;;4.80;;
71572;SDS011;59408;51.032;9.410;2023-12-07T13:53:28;10.45;;;4.70;;
71572;SDS011;59408;51.032;9.410;2023-12-07T13:55:55;9.07;;;4.37;;
71572;SDS011;59408;51.032;9.410;2023-12-07T13:58:22;11.60;;;5.35;;
71572;SDS011;59408;51.032;9.410;2023-12-07T14:00:49;9.88;;;4.63;;
71572;SDS011;59408;51.032;9.410;2023-12-07T14:03:15;8.88;;;4.10;;
71572;SDS011;59408;51.032;9.410;2023-12-07T14:05:42;10.10;;;4.57;;
71572;SDS011;59408;51.032;9.410;2023-12-07T14:08:08;9.90;;;4.73;;
71572;SDS011;59408;51.032;9.410;2023-12-07T14:10:35;11.18;;;5.18;;
71572;SDS011;59408;51.032;9.410;2023-12-07T14:13:03;11.88;;;5.55;;
71572;SDS011;59408;51.032;9.410;2023-12-07T14:15:30;10.63;;;4.95;;
71572;SDS011;59408;51.032;9.410;2023-12-07T14:18:10;11.48;;;5.00;;
71572;SDS011;59408;51.032;9.410;2023-12-07T14:20:36;11.83;;;5.47;;
71572;SDS011;59408;51.032;9.410;2023-12-07T14:23:23;11.02;;;5.30;;
71572;SDS011;59408;51.032;9.410;2023-12-07T14:25:49;12.93;;;5.43;;
71572;SDS011;59408;51.032;9.410;2023-12-07T14:28:17;12.68;;;5.43;;
71572;SDS011;59408;51.032;9.410;2023-12-07T14:30:44;12.05;;;6.18;;
71572;SDS011;59408;51.032;9.410;2023-12-07T14:33:10;12.07;;;5.90;;
71572;SDS011;59408;51.032;9.410;2023-12-07T14:35:37;12.32;;;5.82;;
71572;SDS011;59408;51.032;9.410;2023-12-07T14:38:04;13.00;;;6.35;;
71572;SDS011;59408;51.032;9.410;2023-12-07T14:40:30;13.45;;;6.63;;